Time;durP1;ratioP1;P1;durP2;ratioP2;P2;SDS_P1;SDS_P2;PMS_P1;PMS_P2;Temp;Humidity;BMP_temperature;BMP_pressure;BME280_temperature;BME280_humidity;BME280_pressure;Samples;Min_cycle;Max_cycle;Signal;HPM_P1;HPM_P2
2022/10/11 00:00:01;;;;;;;26.88;3.90;;;;;;;11.83;87.83;100902.34;4937335;29;20494;-72
2022/10/11 00:02:26;;;;;;;21.35;3.22;;;;;;;11.84;87.80;100895.91;4953426;28;20054;-72
2022/10/11 00:04:51;;;;;;;18.00;3.75;;;;;;;11.87;87.96;100907.16;4954590;29;20549;-72
2022/10/11 00:07:18;;;;;;;28.92;4.57;;;;;;;11.91;89.46;100902.19;4954637;29;20054;-72
2022/10/11 00:09:45;;;;;;;25.42;4.32;;;;;;;11.98;91.42;100903.84;4954520;29;20046;-72
2022/10/11 00:12:10;;;;;;;20.70;4.32;;;;;;;11.96;91.17;100907.78;4954316;29;20035;-71
2022/10/11 00:14:36;;;;;;;18.15;3.42;;;;;;;11.83;91.33;100896.97;4954253;29;20443;-72
2022/10/11 00:17:07;;;;;;;31.92;5.03;;;;;;;11.94;91.55;100905.28;4936875;29;20031;-72
2022/10/11 00:19:33;;;;;;;23.08;4.00;;;;;;;11.94;91.97;100909.84;4954836;29;20043;-72
2022/10/11 00:21:58;;;;;;;23.40;3.92;;;;;;;11.90;89.49;100898.66;4937000;29;20039;-72
2022/10/11 00:24:23;;;;;;;19.98;3.67;;;;;;;11.93;88.34;100906.34;4937035;29;20066;-71
2022/10/11 00:26:49;;;;;;;21.35;4.00;;;;;;;11.97;89.08;100904.88;4936880;29;20031;-72
2022/10/11 00:29:14;;;;;;;22.73;3.53;;;;;;;11.83;88.22;100881.63;4917705;29;20091;-72
2022/10/11 00:31:40;;;;;;;12.35;2.83;;;;;;;11.95;87.70;100889.94;4935168;29;20028;-71
2022/10/11 00:34:06;;;;;;;27.65;5.43;;;;;;;11.99;89.16;100912.78;4935476;29;20508;-71
2022/10/11 00:36:31;;;;;;;20.55;3.58;;;;;;;11.97;90.21;100896.78;4953678;29;20514;-72
2022/10/11 00:38:57;;;;;;;21.77;3.67;;;;;;;11.96;88.92;100913.19;4936581;29;20122;-71
2022/10/11 00:41:23;;;;;;;20.67;3.65;;;;;;;11.94;88.96;100916.06;4936788;29;20515;-72
2022/10/11 00:44:11;;;;;;;17.73;3.90;;;;;;;11.99;88.18;100928.97;4936624;28;20050;-72
2022/10/11 00:46:37;;;;;;;28.20;4.32;;;;;;;11.96;89.41;100913.19;4923810;29;20038;-72
2022/10/11 00:49:14;;;;;;;19.30;3.90;;;;;;;11.89;88.96;100906.97;4936536;29;20163;-72
2022/10/11 00:51:49;;;;;;;27.00;4.30;;;;;;;11.89;90.53;100905.09;4953753;29;20027;-72
2022/10/11 00:54:19;;;;;;;20.73;4.07;;;;;;;11.96;89.86;100919.41;4933013;29;20418;-72
2022/10/11 00:56:52;;;;;;;25.33;4.13;;;;;;;11.91;89.52;100915.66;4941417;29;20118;-71
2022/10/11 00:59:23;;;;;;;25.38;4.55;;;;;;;11.97;90.15;100920.22;4953459;28;20098;-71
2022/10/11 01:01:50;;;;;;;25.35;5.55;;;;;;;11.63;91.83;100860.00;4936274;29;20109;-71
2022/10/11 01:04:16;;;;;;;22.20;3.53;;;;;;;11.77;91.96;100887.81;4937701;29;20414;-72
2022/10/11 01:06:42;;;;;;;27.35;3.55;;;;;;;11.95;90.85;100911.50;4935919;28;20027;-72
2022/10/11 01:09:09;;;;;;;22.48;3.88;;;;;;;11.85;89.57;100908.38;4953451;29;20113;-72
2022/10/11 01:11:38;;;;;;;21.83;3.60;;;;;;;11.95;89.07;100908.81;4953472;29;20058;-72
2022/10/11 01:14:14;;;;;;;20.70;3.78;;;;;;;11.77;88.16;100888.66;4953111;28;20442;-72
2022/10/11 01:17:17;;;;;;;24.45;4.10;;;;;;;11.97;88.92;100915.66;4936105;29;20059;-71
2022/10/11 01:19:48;;;;;;;23.55;3.75;;;;;;;12.02;89.62;100919.59;4895139;29;20082;-72
2022/10/11 01:22:42;;;;;;;18.00;3.22;;;;;;;11.98;90.02;100916.50;4953060;29;20034;-71
2022/10/11 01:25:16;;;;;;;14.10;2.95;;;;;;;11.98;90.65;100911.94;4953164;29;20059;-71
2022/10/11 01:27:47;;;;;;;17.20;3.35;;;;;;;11.96;90.37;100902.41;4953157;28;20038;-72
2022/10/11 01:30:16;;;;;;;15.93;3.00;;;;;;;11.96;89.54;100919.41;4953054;29;20066;-72
2022/10/11 01:33:02;;;;;;;13.85;2.63;;;;;;;11.95;89.63;100928.53;4936152;29;20557;-72
2022/10/11 01:35:43;;;;;;;12.80;2.65;;;;;;;12.01;89.71;100931.44;4953137;29;20042;-72
2022/10/11 01:38:36;;;;;;;10.43;2.33;;;;;;;11.75;88.02;100896.13;4935668;28;20031;-71
2022/10/11 01:41:37;;;;;;;12.60;2.15;;;;;;;11.78;87.22;100913.72;4936012;29;20110;-72
2022/10/11 01:44:04;;;;;;;9.75;1.45;;;;;;;11.85;87.17;100922.69;4936114;29;20050;-72
2022/10/11 01:46:30;;;;;;;17.02;3.28;;;;;;;11.85;88.51;100928.09;4953431;29;20489;-72
2022/10/11 01:48:59;;;;;;;18.38;2.63;;;;;;;11.81;89.91;100924.13;4935894;29;20038;-72
2022/10/11 01:51:49;;;;;;;14.45;3.10;;;;;;;11.86;90.31;100921.69;4935751;29;20114;-72
2022/10/11 01:54:24;;;;;;;11.40;2.17;;;;;;;11.87;91.22;100912.53;4952586;28;20037;-72
2022/10/11 01:57:05;;;;;;;27.35;3.22;;;;;;;11.92;91.90;100920.88;4952909;29;20037;-72
2022/10/11 01:59:37;;;;;;;17.52;2.38;;;;;;;11.91;92.26;100923.75;4935782;29;20059;-72
2022/10/11 02:02:23;;;;;;;14.00;2.42;;;;;;;11.95;92.61;100933.09;4952683;28;20502;-71
2022/10/11 02:05:01;;;;;;;18.33;3.10;;;;;;;11.97;93.73;100931.03;4935678;29;20383;-71
2022/10/11 02:07:40;;;;;;;16.20;2.58;;;;;;;11.95;93.01;100928.53;4952741;29;20111;-71
2022/10/11 02:10:13;;;;;;;15.93;2.70;;;;;;;11.98;92.67;100933.50;4935487;29;20498;-72
2022/10/11 02:13:07;;;;;;;10.45;2.20;;;;;;;11.94;91.87;100926.88;4954748;29;20102;-71
2022/10/11 02:15:38;;;;;;;15.20;2.25;;;;;;;11.87;90.03;100909.03;4953454;29;20487;-71
2022/10/11 02:18:09;;;;;;;17.77;2.80;;;;;;;11.97;89.40;100937.25;4952543;29;20182;-71
2022/10/11 02:20:37;;;;;;;16.05;2.78;;;;;;;11.95;89.95;100928.53;4935660;29;20037;-72
2022/10/11 02:23:09;;;;;;;18.33;2.85;;;;;;;12.00;91.28;100941.41;4935133;29;20039;-71
2022/10/11 02:25:36;;;;;;;18.70;2.92;;;;;;;11.94;91.76;100942.22;4954124;28;20055;-72
2022/10/11 02:28:07;;;;;;;12.02;2.92;;;;;;;11.89;91.92;100939.31;4956030;28;20032;-71
2022/10/11 02:30:35;;;;;;;18.63;3.00;;;;;;;11.90;92.55;100941.81;4938910;29;20094;-71
2022/10/11 02:33:04;;;;;;;21.02;2.80;;;;;;;11.80;93.13;100945.91;4956205;28;20030;-71
2022/10/11 02:35:43;;;;;;;15.15;2.50;;;;;;;11.77;93.58;100934.47;4938596;29;20494;-71
2022/10/11 02:38:38;;;;;;;20.17;2.63;;;;;;;11.89;93.41;100947.41;4956027;29;20035;-71
2022/10/11 02:41:20;;;;;;;14.85;2.35;;;;;;;11.89;93.86;100955.50;4896655;29;20068;-71
2022/10/11 02:43:56;;;;;;;13.60;2.10;;;;;;;11.72;92.03;100923.50;4896690;29;20060;-71
2022/10/11 02:46:24;;;;;;;8.00;1.90;;;;;;;11.81;92.00;100942.97;4881659;29;20044;-72
2022/10/11 02:48:50;;;;;;;13.93;2.33;;;;;;;11.80;93.04;100935.13;4896648;29;20124;-71
2022/10/11 02:51:16;;;;;;;15.23;2.40;;;;;;;12.02;93.57;100958.22;4880885;29;20040;-71
2022/10/11 02:53:42;;;;;;;11.02;2.00;;;;;;;11.90;91.85;100955.28;4880888;29;20051;-72
2022/10/11 02:56:07;;;;;;;17.40;2.92;;;;;;;11.89;92.23;100958.19;4896659;29;20044;-70
2022/10/11 02:58:32;;;;;;;11.10;2.38;;;;;;;11.91;93.09;100958.81;4880862;29;20051;-71
2022/10/11 03:00:58;;;;;;;18.58;3.17;;;;;;;11.88;92.82;100956.50;4880606;29;20036;-72
2022/10/11 03:03:23;;;;;;;17.55;2.47;;;;;;;11.86;89.76;100959.44;4896463;29;20054;-71
2022/10/11 03:05:49;;;;;;;14.80;2.60;;;;;;;11.84;90.01;100969.56;4896583;29;20041;-72
2022/10/11 03:08:35;;;;;;;19.58;3.15;;;;;;;11.88;89.72;100953.81;4896373;29;20040;-72
2022/10/11 03:11:00;;;;;;;15.18;2.35;;;;;;;11.84;90.64;100960.63;4858930;29;20120;-72
2022/10/11 03:13:26;;;;;;;7.75;1.30;;;;;;;11.77;89.70;100955.22;4858988;29;20583;-72
2022/10/11 03:15:53;;;;;;;13.75;2.28;;;;;;;11.84;90.13;100949.84;4858892;29;20057;-72
2022/10/11 03:18:19;;;;;;;14.63;2.10;;;;;;;11.86;91.27;100964.00;4869690;29;20143;-72
2022/10/11 03:20:44;;;;;;;19.02;3.40;;;;;;;11.91;91.15;100972.28;4880333;29;20053;-72
2022/10/11 03:23:10;;;;;;;17.77;2.78;;;;;;;11.95;91.77;100968.13;4880614;29;20547;-72
2022/10/11 03:25:36;;;;;;;12.43;2.30;;;;;;;11.92;91.70;100964.00;4894701;29;20581;-71
2022/10/11 03:28:01;;;;;;;12.93;2.58;;;;;;;11.96;92.11;100967.13;4879328;29;20064;-71
2022/10/11 03:30:27;;;;;;;10.93;1.98;;;;;;;11.88;91.47;100945.72;4879310;29;20543;-72
2022/10/11 03:32:52;;;;;;;7.63;1.63;;;;;;;11.82;88.93;100957.28;4895085;29;20041;-72
2022/10/11 03:35:18;;;;;;;15.57;2.10;;;;;;;11.89;88.85;100987.84;4894883;29;20052;-73
2022/10/11 03:37:46;;;;;;;11.98;2.22;;;;;;;11.91;89.60;100994.69;4894577;29;20536;-72
2022/10/11 03:40:31;;;;;;;9.30;1.83;;;;;;;11.90;89.79;100981.41;4894646;29;20045;-72
2022/10/11 03:42:59;;;;;;;15.07;2.47;;;;;;;11.85;89.39;100981.19;4897886;29;20059;-72
2022/10/11 03:45:24;;;;;;;9.38;2.00;;;;;;;11.92;88.76;100996.38;4897722;29;20515;-70
2022/10/11 03:47:50;;;;;;;10.65;1.95;;;;;;;11.88;88.50;100988.88;4897598;29;20054;-69
2022/10/11 03:50:15;;;;;;;17.90;2.28;;;;;;;11.91;88.03;100993.84;4913243;29;20036;-71
2022/10/11 03:52:40;;;;;;;21.60;2.63;;;;;;;11.94;88.42;100990.75;4913733;29;20127;-72
2022/10/11 03:55:06;;;;;;;16.85;2.58;;;;;;;11.93;87.96;100997.19;4882199;29;20057;-72
2022/10/11 03:57:32;;;;;;;12.07;2.30;;;;;;;11.65;86.61;100946.88;4913339;29;20044;-72
2022/10/11 03:59:57;;;;;;;9.40;2.00;;;;;;;11.90;87.70;101000.28;4913267;29;20048;-72
2022/10/11 04:02:23;;;;;;;17.25;2.60;;;;;;;11.92;88.09;101009.84;4913120;29;20068;-72
2022/10/11 04:04:48;;;;;;;20.83;2.50;;;;;;;11.89;89.18;100991.38;4913441;29;20036;-71
2022/10/11 04:07:15;;;;;;;10.43;1.92;;;;;;;11.86;90.28;100993.66;4897534;29;20052;-72
2022/10/11 04:09:40;;;;;;;13.30;2.13;;;;;;;11.77;88.30;100991.09;4913290;29;20048;-70
2022/10/11 04:12:06;;;;;;;8.82;1.45;;;;;;;11.72;88.89;101006.19;4897306;29;20136;-70
2022/10/11 04:14:31;;;;;;;12.98;1.98;;;;;;;11.77;89.13;101015.34;4931254;29;20040;-72
2022/10/11 04:16:57;;;;;;;14.15;2.28;;;;;;;11.72;90.01;101011.59;4936437;29;20043;-71
2022/10/11 04:19:22;;;;;;;14.52;2.00;;;;;;;11.65;90.70;101011.56;4920530;29;20447;-71
2022/10/11 04:21:48;;;;;;;13.23;1.52;;;;;;;11.49;91.12;100995.75;4953230;28;20038;-72
2022/10/11 04:24:13;;;;;;;14.30;2.28;;;;;;;11.68;91.45;101013.84;4890546;29;1838495;-71
2022/10/11 04:26:38;;;;;;;10.27;2.22;;;;;;;11.68;92.00;101037.28;4954354;29;20041;-71
2022/10/11 04:29:04;;;;;;;13.55;2.13;;;;;;;11.64;91.78;101038.72;4936914;29;20035;-71
2022/10/11 04:31:30;;;;;;;13.00;1.75;;;;;;;11.65;93.07;101006.16;4954004;29;20493;-71
2022/10/11 04:33:56;;;;;;;10.95;1.50;;;;;;;11.63;91.73;101037.06;4917732;29;20042;-71
2022/10/11 04:36:22;;;;;;;11.15;2.08;;;;;;;11.58;90.00;101026.88;4936802;29;20122;-71
2022/10/11 04:38:48;;;;;;;6.45;1.33;;;;;;;11.61;91.86;101042.66;4936837;29;20046;-71
2022/10/11 04:41:16;;;;;;;14.18;2.25;;;;;;;11.58;92.00;101042.22;4936864;29;20035;-71
2022/10/11 04:43:42;;;;;;;10.73;2.15;;;;;;;11.61;91.55;101048.03;4953869;29;20039;-71
2022/10/11 04:46:08;;;;;;;9.40;2.08;;;;;;;11.57;92.54;101044.09;4936439;29;20042;-71
2022/10/11 04:48:33;;;;;;;12.23;1.77;;;;;;;11.56;91.93;101047.81;4920353;29;20629;-71
2022/10/11 04:50:59;;;;;;;12.13;1.70;;;;;;;11.57;92.09;101044.09;4953720;29;20142;-71
2022/10/11 04:53:24;;;;;;;14.02;1.70;;;;;;;11.60;92.05;101049.09;4953911;28;20027;-71
2022/10/11 04:56:01;;;;;;;14.80;2.47;;;;;;;11.58;92.02;101045.75;4917590;29;20106;-71
2022/10/11 04:58:28;;;;;;;14.63;1.75;;;;;;;11.55;92.45;101048.84;4938701;29;20019;-72
2022/10/11 05:00:53;;;;;;;16.90;2.38;;;;;;;11.56;93.09;101060.47;4936354;29;20027;-71
2022/10/11 05:03:19;;;;;;;11.95;2.08;;;;;;;11.56;92.99;101052.38;4936445;29;20035;-71
2022/10/11 05:05:44;;;;;;;17.40;2.08;;;;;;;11.48;92.97;101050.66;4936025;29;20569;-70
2022/10/11 05:08:10;;;;;;;15.93;2.65;;;;;;;11.53;92.16;101067.09;4953404;29;20038;-70
2022/10/11 05:10:35;;;;;;;12.65;2.30;;;;;;;11.51;92.34;101085.31;4936105;29;20486;-70
2022/10/11 05:13:01;;;;;;;14.93;2.08;;;;;;;11.43;92.15;101062.06;4936202;29;20067;-71
2022/10/11 05:15:26;;;;;;;7.43;1.52;;;;;;;11.44;91.15;101068.28;4936263;29;20062;-71
2022/10/11 05:17:52;;;;;;;12.80;1.30;;;;;;;11.33;91.61;101060.75;4953372;29;20047;-71
2022/10/11 05:20:17;;;;;;;12.55;1.95;;;;;;;11.41;90.49;101074.06;4920183;29;20063;-71
2022/10/11 05:22:43;;;;;;;11.95;2.17;;;;;;;11.37;90.49;101067.41;4953252;29;20031;-69
2022/10/11 05:25:08;;;;;;;9.13;1.73;;;;;;;11.19;90.43;101054.41;4953305;28;20047;-70
2022/10/11 05:27:33;;;;;;;10.75;1.85;;;;;;;11.37;90.78;101086.25;4935969;29;20035;-71
2022/10/11 05:29:59;;;;;;;19.60;2.65;;;;;;;11.39;91.63;101092.28;4917092;29;20043;-72
2022/10/11 05:32:24;;;;;;;13.57;1.90;;;;;;;10.92;92.56;101023.78;4953228;29;20026;-72
2022/10/11 05:34:50;;;;;;;12.25;1.38;;;;;;;11.37;92.22;101095.19;4953210;29;20027;-67
2022/10/11 05:37:15;;;;;;;12.27;1.88;;;;;;;11.36;92.25;101098.91;4936014;29;20090;-67
2022/10/11 05:39:40;;;;;;;15.80;1.98;;;;;;;11.36;92.30;101107.00;4919936;29;20122;-70
2022/10/11 05:42:07;;;;;;;8.82;1.83;;;;;;;10.88;92.15;101031.44;4945386;28;20513;-70
2022/10/11 05:44:32;;;;;;;8.25;2.03;;;;;;;11.39;91.87;101108.44;4929290;29;20043;-68
2022/10/11 05:46:58;;;;;;;9.50;1.45;;;;;;;11.39;91.83;101111.13;4947604;29;20478;-70
2022/10/11 05:49:23;;;;;;;10.82;1.63;;;;;;;11.37;91.72;101124.81;4953054;29;20090;-69
2022/10/11 05:51:48;;;;;;;9.73;1.60;;;;;;;11.38;90.96;101118.38;4935801;29;20047;-68
2022/10/11 05:54:14;;;;;;;9.65;1.90;;;;;;;11.42;92.02;101126.91;4949348;28;20059;-68
2022/10/11 05:56:39;;;;;;;7.93;1.30;;;;;;;11.21;90.20;101106.25;4953048;29;20466;-68
2022/10/11 05:59:05;;;;;;;8.20;1.48;;;;;;;11.43;91.15;101128.59;4937315;28;20045;-69
2022/10/11 06:01:30;;;;;;;12.55;2.50;;;;;;;11.45;90.62;101134.59;4924492;29;20031;-68
2022/10/11 06:03:58;;;;;;;9.45;1.83;;;;;;;11.46;90.95;101157.84;4956870;29;20027;-67
2022/10/11 06:06:25;;;;;;;13.38;1.92;;;;;;;11.49;91.14;101149.38;4948755;29;20023;-68
2022/10/11 06:08:50;;;;;;;23.58;10.40;;;;;;;11.39;91.42;101140.75;4956277;28;20027;-68
2022/10/11 06:11:23;;;;;;;12.60;2.05;;;;;;;11.42;91.47;101145.75;4949211;29;20486;-68
2022/10/11 06:13:49;;;;;;;10.43;2.13;;;;;;;11.47;90.87;101154.94;4945064;29;20027;-66
2022/10/11 06:16:15;;;;;;;13.77;3.33;;;;;;;11.43;91.07;101142.06;4948314;29;20538;-69
2022/10/11 06:18:40;;;;;;;14.73;2.45;;;;;;;11.48;90.44;101163.84;4956749;29;20042;-67
2022/10/11 06:21:06;;;;;;;10.38;2.75;;;;;;;11.47;90.27;101173.81;4953205;29;20031;-68
2022/10/11 06:23:31;;;;;;;13.63;2.33;;;;;;;11.46;89.87;101184.78;4948855;29;20471;-68
2022/10/11 06:26:06;;;;;;;12.45;2.67;;;;;;;11.51;90.24;101179.63;4932531;29;20055;-69
2022/10/11 06:28:32;;;;;;;;;;;;;;;11.49;88.13;101184.41;4936004;29;20023;-68
2022/10/11 06:30:57;;;;;;;10.85;2.28;;;;;;;11.52;88.08;101183.97;4956293;29;19926;-68
2022/10/11 06:33:23;;;;;;;8.88;1.95;;;;;;;11.51;88.56;101180.47;4932839;29;20028;-68
2022/10/11 06:35:49;;;;;;;11.20;2.05;;;;;;;11.49;89.67;101177.16;4947910;29;20505;-68
2022/10/11 06:38:14;;;;;;;14.43;2.47;;;;;;;11.52;89.32;101182.16;4931749;29;20067;-69
2022/10/11 06:40:40;;;;;;;10.13;1.92;;;;;;;11.58;89.64;101196.69;4931751;29;20482;-69
2022/10/11 06:43:06;;;;;;;12.55;1.88;;;;;;;11.62;88.45;101200.66;4931591;29;20036;-69
2022/10/11 06:45:31;;;;;;;8.68;1.80;;;;;;;11.62;88.25;101202.50;4947439;29;20094;-69
2022/10/11 06:47:57;;;;;;;13.88;2.15;;;;;;;11.65;88.70;101211.03;4932473;29;20042;-69
2022/10/11 06:50:22;;;;;;;13.15;1.88;;;;;;;11.68;88.58;101220.59;4938782;29;20055;-69
2022/10/11 06:52:47;;;;;;;10.20;1.60;;;;;;;11.64;86.93;101219.31;4938671;29;20122;-68
2022/10/11 06:55:13;;;;;;;10.77;1.70;;;;;;;11.70;87.01;101219.38;4938842;29;20499;-68
2022/10/11 06:57:38;;;;;;;7.32;1.30;;;;;;;11.66;86.93;101228.88;4955811;29;20042;-68
2022/10/11 07:00:07;;;;;;;11.45;1.73;;;;;;;11.68;86.81;101223.28;4955739;29;20043;-68
2022/10/11 07:02:32;;;;;;;7.38;1.58;;;;;;;11.72;87.47;101241.59;4955387;29;20031;-69
2022/10/11 07:04:57;;;;;;;10.80;2.30;;;;;;;11.75;86.46;101235.81;4938616;29;20031;-69
2022/10/11 07:07:23;;;;;;;9.75;1.90;;;;;;;11.77;87.15;101236.44;4938105;28;20039;-67
2022/10/11 07:09:48;;;;;;;7.70;1.73;;;;;;;11.75;84.98;101251.13;4938454;29;20031;-70
2022/10/11 07:12:15;;;;;;;7.60;1.65;;;;;;;11.59;83.94;101214.53;4937161;29;20051;-72
2022/10/11 07:14:40;;;;;;;15.13;2.30;;;;;;;11.69;84.12;101236.59;4937948;29;20106;-69
2022/10/11 07:17:05;;;;;;;7.55;1.38;;;;;;;11.75;81.94;101248.44;4955542;29;20031;-69
2022/10/11 07:19:31;;;;;;;9.07;1.75;;;;;;;11.09;83.96;101140.94;4955659;29;20490;-69
2022/10/11 07:21:56;;;;;;;9.90;2.15;;;;;;;11.91;84.55;101264.34;4938048;29;20042;-69
2022/10/11 07:24:22;;;;;;;9.43;1.70;;;;;;;11.79;83.10;101263.22;4955060;28;20510;-69
2022/10/11 07:26:50;;;;;;;9.52;2.17;;;;;;;11.93;82.38;101273.09;4938098;29;20046;-69
2022/10/11 07:29:15;;;;;;;15.85;2.30;;;;;;;12.00;82.52;101281.22;4955285;29;20182;-69
2022/10/11 07:31:42;;;;;;;15.85;2.40;;;;;;;11.97;80.51;101268.97;4938196;29;20542;-69
2022/10/11 07:34:08;;;;;;;14.05;1.98;;;;;;;11.98;80.06;101281.41;4955188;29;20094;-69
2022/10/11 07:36:34;;;;;;;14.07;2.20;;;;;;;12.06;81.86;101291.22;4938036;29;20023;-69
2022/10/11 07:39:01;;;;;;;8.60;1.73;;;;;;;11.96;81.75;101263.78;4937971;29;20453;-69
2022/10/11 07:41:26;;;;;;;11.13;1.65;;;;;;;11.83;80.58;101242.06;4937832;29;20042;-70
2022/10/11 07:43:53;;;;;;;8.68;1.90;;;;;;;12.12;79.82;101298.53;4937535;29;20035;-69
2022/10/11 07:46:18;;;;;;;13.52;2.28;;;;;;;12.10;78.67;101305.16;4937763;29;20402;-69
2022/10/11 07:48:44;;;;;;;9.65;2.08;;;;;;;12.13;80.69;101307.47;4954892;28;20045;-69
2022/10/11 07:51:15;;;;;;;13.07;2.42;;;;;;;12.16;79.83;101310.59;4954693;28;20050;-70
2022/10/11 07:53:43;;;;;;;10.50;1.42;;;;;;;12.03;79.30;101286.22;4956426;29;20035;-70
2022/10/11 07:56:11;;;;;;;13.00;1.70;;;;;;;12.22;79.18;101312.50;4938821;29;20494;-69
2022/10/11 07:58:37;;;;;;;9.98;2.22;;;;;;;12.21;77.58;101300.03;4937735;29;20039;-70
2022/10/11 08:01:03;;;;;;;10.20;2.25;;;;;;;12.14;78.04;101287.53;4937530;29;20027;-70
2022/10/11 08:03:29;;;;;;;13.15;2.17;;;;;;;12.35;78.86;101319.00;4954412;29;20031;-69
2022/10/11 08:05:59;;;;;;;20.45;3.25;;;;;;;12.28;80.29;101291.97;4954414;29;20042;-69
2022/10/11 08:08:24;;;;;;;8.13;1.63;;;;;;;12.42;77.05;101328.00;4954500;29;20493;-69
2022/10/11 08:10:50;;;;;;;8.13;1.98;;;;;;;12.41;76.46;101326.31;4937326;29;20034;-69
2022/10/11 08:13:16;;;;;;;9.80;1.63;;;;;;;12.39;75.50;101331.09;4936871;29;20117;-70
2022/10/11 08:15:41;;;;;;;11.35;1.80;;;;;;;12.41;74.92;101337.94;4954464;29;20039;-69
2022/10/11 08:18:07;;;;;;;12.18;2.05;;;;;;;12.49;75.46;101339.66;4953969;29;20047;-69
2022/10/11 08:20:32;;;;;;;8.35;1.63;;;;;;;12.27;75.57;101302.97;4954261;29;20390;-70
2022/10/11 08:22:58;;;;;;;15.90;2.65;;;;;;;12.42;78.69;101333.41;4953410;28;20027;-69
2022/10/11 08:25:23;;;;;;;17.15;2.63;;;;;;;12.26;79.64;101312.13;4954131;29;20130;-69
2022/10/11 08:27:48;;;;;;;11.88;2.45;;;;;;;12.53;77.20;101348.19;4921129;29;20047;-69
2022/10/11 08:30:14;;;;;;;24.92;2.67;;;;;;;12.56;77.69;101347.81;4936583;29;20415;-70
2022/10/11 08:32:39;;;;;;;14.15;2.35;;;;;;;12.52;77.87;101352.75;4936650;29;20027;-69
2022/10/11 08:35:06;;;;;;;10.43;2.13;;;;;;;12.50;78.14;101362.91;4936999;29;20046;-69
2022/10/11 08:37:31;;;;;;;16.50;2.70;;;;;;;12.50;77.85;101356.69;4954495;29;20035;-69
2022/10/11 08:39:56;;;;;;;15.82;2.40;;;;;;;12.49;75.52;101353.16;4937348;29;20046;-68
2022/10/11 08:42:47;;;;;;;13.63;2.28;;;;;;;12.59;76.55;101358.19;4936764;29;20058;-69
2022/10/11 08:45:26;;;;;;;10.23;1.60;;;;;;;12.51;75.92;101358.34;4949131;29;20035;-69
2022/10/11 08:48:01;;;;;;;13.88;2.22;;;;;;;12.40;78.50;101322.78;4953229;29;20478;-72
2022/10/11 08:50:26;;;;;;;9.55;1.80;;;;;;;12.60;76.88;101351.75;4946954;29;20036;-69
2022/10/11 08:53:01;;;;;;;11.60;2.38;;;;;;;12.55;75.37;101356.91;4915608;29;20028;-68
2022/10/11 08:55:35;;;;;;;14.30;2.15;;;;;;;12.64;75.45;101367.34;4927619;29;20042;-69
2022/10/11 08:58:01;;;;;;;11.65;1.98;;;;;;;12.54;74.36;101352.56;4953040;28;20114;-68
2022/10/11 09:00:31;;;;;;;6.10;1.20;;;;;;;12.57;74.46;101379.16;4935648;29;20118;-69
2022/10/11 09:03:37;;;;;;;10.82;1.92;;;;;;;12.60;76.38;101374.19;4952897;29;20042;-68
2022/10/11 09:06:29;;;;;;;16.27;2.72;;;;;;;12.57;78.87;101363.78;4952089;29;20038;-69
2022/10/11 09:09:10;;;;;;;17.67;2.65;;;;;;;12.70;77.70;101385.47;4935307;29;20031;-69
2022/10/11 09:11:44;;;;;;;9.48;2.15;;;;;;;12.36;77.58;101334.19;4952464;29;20035;-68
2022/10/11 09:14:46;;;;;;;9.65;1.77;;;;;;;12.77;77.46;101392.78;4934801;29;20031;-69
2022/10/11 09:17:31;;;;;;;13.32;2.33;;;;;;;12.76;77.60;101402.75;4934448;29;20068;-69
2022/10/11 09:20:02;;;;;;;15.77;2.57;;;;;;;12.70;78.71;101390.03;4952371;29;20105;-68
2022/10/11 09:22:30;;;;;;;13.35;2.83;;;;;;;12.71;79.57;101424.09;4934153;29;20393;-68
2022/10/11 09:25:19;;;;;;;11.65;1.73;;;;;;;12.78;78.78;101403.38;4951601;29;20051;-69
2022/10/11 09:28:00;;;;;;;13.25;2.25;;;;;;;12.83;79.48;101417.13;4952370;29;20049;-68
2022/10/11 09:30:25;;;;;;;10.35;1.85;;;;;;;12.80;79.09;101417.50;4934728;29;20038;-68
2022/10/11 09:33:22;;;;;;;16.40;2.35;;;;;;;12.83;78.95;101427.09;4951886;29;20043;-68
2022/10/11 09:35:51;;;;;;;14.05;2.42;;;;;;;12.84;75.86;101417.94;4952061;28;20081;-69
2022/10/11 09:38:36;;;;;;;14.40;2.38;;;;;;;12.75;75.18;101411.03;4934487;29;20039;-69
2022/10/11 09:41:43;;;;;;;9.40;2.05;;;;;;;12.99;76.18;101434.03;4932771;29;20042;-68
2022/10/11 09:44:18;;;;;;;8.13;2.03;;;;;;;12.78;77.28;101421.44;4911108;29;20511;-68
2022/10/11 09:46:45;;;;;;;8.90;1.75;;;;;;;12.83;78.89;101446.81;4911795;29;20096;-68
2022/10/11 09:49:13;;;;;;;12.60;1.98;;;;;;;12.83;77.70;101433.31;4911578;29;20044;-69
2022/10/11 09:51:46;;;;;;;9.13;1.70;;;;;;;12.98;76.64;101445.84;4911150;29;20036;-69
2022/10/11 09:54:11;;;;;;;11.80;2.20;;;;;;;13.02;76.18;101455.25;4910621;29;20136;-69
2022/10/11 09:56:42;;;;;;;11.25;1.67;;;;;;;13.02;76.02;101453.38;4911597;29;20115;-68
2022/10/11 09:59:20;;;;;;;11.20;2.10;;;;;;;13.03;77.11;101460.44;4895413;29;20051;-66
2022/10/11 10:01:45;;;;;;;9.98;1.85;;;;;;;13.00;75.47;101452.75;4892385;29;20523;-69
2022/10/11 10:04:13;;;;;;;8.07;1.52;;;;;;;12.89;73.87;101454.13;4893568;29;20055;-69
2022/10/11 10:06:39;;;;;;;6.47;1.13;;;;;;;12.94;72.61;101467.88;4912492;29;20040;-69
2022/10/11 10:09:20;;;;;;;12.02;1.92;;;;;;;13.01;73.10;101472.47;4912512;29;20052;-69
2022/10/11 10:11:46;;;;;;;9.63;1.75;;;;;;;13.02;72.75;101466.88;4912448;29;20044;-69
2022/10/11 10:14:37;;;;;;;8.70;1.65;;;;;;;12.99;73.47;101479.97;4920463;29;20050;-68
2022/10/11 10:17:05;;;;;;;7.55;1.30;;;;;;;13.02;73.99;101485.81;4930543;28;20110;-65
2022/10/11 10:20:00;;;;;;;11.00;1.67;;;;;;;13.05;75.26;101482.72;4952258;29;20077;-65
2022/10/11 10:22:32;;;;;;;10.68;1.90;;;;;;;12.97;74.83;101482.84;4931349;29;20503;-65
2022/10/11 10:25:06;;;;;;;9.93;1.80;;;;;;;12.77;74.20;101449.47;4951046;28;20059;-65
2022/10/11 10:27:34;;;;;;;13.45;1.80;;;;;;;13.01;75.71;101484.13;4934891;29;20034;-70
2022/10/11 10:30:09;;;;;;;8.55;1.55;;;;;;;13.10;74.03;101488.34;4934125;29;20049;-68
2022/10/11 10:32:41;;;;;;;9.02;1.67;;;;;;;12.98;72.61;101476.44;4946487;29;20019;-65
2022/10/11 10:35:24;;;;;;;10.43;1.70;;;;;;;13.12;71.78;101496.25;4937792;29;20498;-66
2022/10/11 10:38:05;;;;;;;9.60;1.50;;;;;;;13.12;72.12;101491.69;4934445;29;20501;-68
2022/10/11 10:40:40;;;;;;;9.43;1.67;;;;;;;13.07;74.00;101515.75;4945078;29;20038;-68
2022/10/11 10:43:14;;;;;;;12.55;2.22;;;;;;;13.12;76.31;101498.97;4951605;29;20046;-69
2022/10/11 10:46:29;;;;;;;9.45;1.45;;;;;;;13.08;75.11;101517.44;4951507;28;20031;-70
2022/10/11 10:49:22;;;;;;;10.23;1.58;;;;;;;13.12;75.82;101517.88;4857031;29;20521;-70
2022/10/11 10:51:53;;;;;;;10.95;1.73;;;;;;;13.09;74.54;101523.66;4938378;29;20430;-69
2022/10/11 10:54:30;;;;;;;9.43;1.77;;;;;;;13.13;75.22;101517.66;4950292;29;20485;-69
2022/10/11 10:57:11;;;;;;;9.30;2.33;;;;;;;13.20;76.64;101524.97;4937743;29;20063;-68
2022/10/11 10:59:42;;;;;;;8.70;2.08;;;;;;;13.09;79.05;101521.81;4955540;29;20393;-67
2022/10/11 11:02:39;;;;;;;13.60;2.15;;;;;;;13.12;78.16;101524.09;4954165;29;20038;-67
2022/10/11 11:05:16;;;;;;;8.82;1.63;;;;;;;13.14;75.76;101526.59;4954111;29;20046;-67
2022/10/11 11:07:57;;;;;;;12.93;2.15;;;;;;;13.12;76.49;101517.88;4937968;29;20065;-66
2022/10/11 11:11:01;;;;;;;9.60;1.70;;;;;;;13.21;77.20;101542.84;4954608;28;20071;-67
2022/10/11 11:13:31;;;;;;;9.73;1.90;;;;;;;13.19;75.48;101544.94;4950422;29;20102;-67
2022/10/11 11:16:11;;;;;;;7.88;1.55;;;;;;;13.30;75.58;101544.41;4954631;29;20102;-67
2022/10/11 11:18:59;;;;;;;13.50;2.55;;;;;;;13.24;75.58;101546.03;4940630;29;20098;-67
2022/10/11 11:21:50;;;;;;;12.57;1.63;;;;;;;13.11;75.92;101544.06;4955260;29;20035;-68
2022/10/11 11:24:53;;;;;;;7.90;1.48;;;;;;;13.14;76.17;101548.22;4937749;29;20035;-68
2022/10/11 11:27:37;;;;;;;10.77;2.22;;;;;;;13.12;76.39;101536.78;4937278;29;20036;-68
2022/10/11 11:30:20;;;;;;;8.97;1.63;;;;;;;13.12;75.30;101547.59;4946225;29;20043;-68
2022/10/11 11:32:56;;;;;;;6.57;1.10;;;;;;;13.07;73.29;101545.47;4955169;29;20031;-68
2022/10/11 11:35:26;;;;;;;10.40;1.63;;;;;;;13.10;73.00;101534.25;4935208;29;20063;-69